createdAt,value
2017-10-27T00:00:29.589Z,36.57
2017-10-27T00:02:57.067Z,32.83
2017-10-27T00:05:24.554Z,35.07
2017-10-27T00:07:52.052Z,33.27
2017-10-27T00:10:19.540Z,33.10
2017-10-27T00:12:47.031Z,33.17
2017-10-27T00:15:14.520Z,31.83
2017-10-27T00:17:42.007Z,30.83
2017-10-27T00:20:09.520Z,32.43
2017-10-27T00:22:37.050Z,31.33
2017-10-27T00:25:05.330Z,31.17
2017-10-27T00:27:33.602Z,30.17
2017-10-27T00:30:01.867Z,29.27
2017-10-27T00:32:30.127Z,27.67
2017-10-27T00:34:57.611Z,26.83
2017-10-27T00:37:25.864Z,26.60
2017-10-27T00:39:53.352Z,23.13
2017-10-27T00:42:20.867Z,23.07
2017-10-27T00:44:48.368Z,21.90
2017-10-27T00:47:16.632Z,23.23
2017-10-27T00:49:44.871Z,23.30
2017-10-27T00:52:12.395Z,19.87
2017-10-27T00:54:39.884Z,20.43
2017-10-27T00:57:07.392Z,22.90
2017-10-27T00:59:35.650Z,21.10
2017-10-27T01:02:03.901Z,21.57
2017-10-27T01:04:31.383Z,23.23
2017-10-27T01:06:59.636Z,21.50
2017-10-27T01:09:27.153Z,21.87
2017-10-27T01:11:54.642Z,24.70
2017-10-27T01:14:22.127Z,26.67
2017-10-27T01:16:49.620Z,25.07
2017-10-27T01:19:17.096Z,23.17
2017-10-27T01:21:44.591Z,21.70
2017-10-27T01:24:12.093Z,18.77
2017-10-27T01:26:39.576Z,21.07
2017-10-27T01:29:07.056Z,25.07
2017-10-27T01:31:34.555Z,23.50
2017-10-27T01:34:02.056Z,24.27
2017-10-27T01:36:29.551Z,21.37
2017-10-27T01:38:57.800Z,23.70
2017-10-27T01:41:25.289Z,22.83
2017-10-27T01:43:53.533Z,22.93
2017-10-27T01:46:21.041Z,26.73
2017-10-27T01:48:48.523Z,25.30
2017-10-27T01:51:16.022Z,28.87
2017-10-27T01:53:43.523Z,29.23
2017-10-27T01:56:11.016Z,27.53
2017-10-27T01:58:38.513Z,29.07
2017-10-27T02:01:06.800Z,26.07
2017-10-27T02:03:35.045Z,32.27
2017-10-27T02:06:02.552Z,28.67
2017-10-27T02:08:30.036Z,31.50
2017-10-27T02:10:57.523Z,32.40
2017-10-27T02:13:25.007Z,29.63
2017-10-27T02:15:53.262Z,33.90
2017-10-27T02:18:21.515Z,34.27
2017-10-27T02:20:49.782Z,32.27
2017-10-27T02:23:17.311Z,30.33
2017-10-27T02:25:44.799Z,32.40
2017-10-27T02:28:12.293Z,31.60
2017-10-27T02:30:40.549Z,32.50
2017-10-27T02:33:08.033Z,33.77
2017-10-27T02:35:36.293Z,33.30
2017-10-27T02:38:03.781Z,34.87
2017-10-27T02:40:31.277Z,34.57
2017-10-27T02:42:58.753Z,37.83
2017-10-27T02:45:26.247Z,37.20
2017-10-27T02:47:53.728Z,39.17
2017-10-27T02:50:21.220Z,34.97
2017-10-27T02:52:48.713Z,36.87
2017-10-27T02:55:17.890Z,34.40
2017-10-27T02:57:45.387Z,37.30
2017-10-27T03:00:12.876Z,31.63
2017-10-27T03:02:40.368Z,32.97
2017-10-27T03:05:07.849Z,33.53
2017-10-27T03:07:35.349Z,31.77
2017-10-27T03:10:02.861Z,31.60
2017-10-27T03:12:31.107Z,29.30
2017-10-27T03:14:58.592Z,27.97
2017-10-27T03:17:26.857Z,29.23
2017-10-27T03:19:55.129Z,27.13
2017-10-27T03:22:23.420Z,28.27
2017-10-27T03:24:51.668Z,26.03
2017-10-27T03:27:19.165Z,23.97
2017-10-27T03:29:46.655Z,25.60
2017-10-27T03:32:14.167Z,26.50
2017-10-27T03:34:42.411Z,25.27
2017-10-27T03:37:09.905Z,23.90
2017-10-27T03:39:37.395Z,26.20
2017-10-27T03:42:04.886Z,24.87
2017-10-27T03:44:32.372Z,25.00
2017-10-27T03:47:00.628Z,25.70
2017-10-27T03:49:28.112Z,24.63
2017-10-27T03:51:56.389Z,23.97
2017-10-27T03:54:23.898Z,22.33
2017-10-27T03:56:51.382Z,21.00
2017-10-27T03:59:19.710Z,24.00
2017-10-27T04:01:47.195Z,21.40
2017-10-27T04:04:14.685Z,18.83
2017-10-27T04:06:42.945Z,19.10
2017-10-27T04:09:10.418Z,18.93
2017-10-27T04:11:37.938Z,19.70
2017-10-27T04:14:05.488Z,22.07
2017-10-27T04:16:33.239Z,20.20
2017-10-27T04:19:00.748Z,18.10
2017-10-27T04:21:29.157Z,16.63
2017-10-27T04:23:56.636Z,16.47
2017-10-27T04:26:24.152Z,18.33
2017-10-27T04:28:52.523Z,19.50
2017-10-27T04:31:20.144Z,20.03
2017-10-27T04:33:48.447Z,21.47
2017-10-27T04:36:15.956Z,22.77
2017-10-27T04:38:43.459Z,22.23
2017-10-27T04:41:10.960Z,19.57
2017-10-27T04:43:38.446Z,21.10
2017-10-27T04:46:05.948Z,16.93
2017-10-27T04:48:34.257Z,19.00
2017-10-27T04:51:01.771Z,18.60
2017-10-27T04:53:29.316Z,13.83
2017-10-27T04:55:56.851Z,14.53
2017-10-27T04:58:24.332Z,15.43
2017-10-27T05:00:51.824Z,15.73
2017-10-27T05:03:20.068Z,12.30
2017-10-27T05:05:47.564Z,14.07
2017-10-27T05:08:15.051Z,11.93
2017-10-27T05:10:42.540Z,10.97
2017-10-27T05:13:10.016Z,9.27
2017-10-27T05:15:37.503Z,12.47
2017-10-27T05:18:10.589Z,12.80
2017-10-27T05:20:43.831Z,12.73
2017-10-27T05:23:16.996Z,11.07
2017-10-27T05:25:44.539Z,11.90
2017-10-27T05:28:12.098Z,11.37
2017-10-27T05:30:39.599Z,13.87
2017-10-27T05:33:07.089Z,12.03
2017-10-27T05:35:35.385Z,14.53
2017-10-27T05:38:02.892Z,12.40
2017-10-27T05:40:30.921Z,14.00
2017-10-27T05:42:58.479Z,14.30
2017-10-27T05:45:25.982Z,12.93
2017-10-27T05:47:53.475Z,10.70
2017-10-27T05:50:21.732Z,25.70
2017-10-27T05:52:49.211Z,38.40
2017-10-27T05:55:17.463Z,61.27
2017-10-27T05:57:44.968Z,11.97
2017-10-27T06:00:12.480Z,17.50
2017-10-27T06:02:40.744Z,59.63
2017-10-27T06:05:08.402Z,17.00
2017-10-27T06:07:35.922Z,19.33
2017-10-27T06:10:03.520Z,14.07
2017-10-27T06:12:31.050Z,22.10
2017-10-27T06:14:58.540Z,15.87
2017-10-27T06:17:26.824Z,17.70
2017-10-27T06:19:54.348Z,14.90
2017-10-27T06:22:21.838Z,11.13
2017-10-27T06:24:49.399Z,16.67
2017-10-27T06:27:16.922Z,19.73
2017-10-27T06:29:44.441Z,14.40
2017-10-27T06:32:12.784Z,16.33
2017-10-27T06:34:40.296Z,20.30
2017-10-27T06:37:07.785Z,11.63
2017-10-27T06:39:35.294Z,14.80
2017-10-27T06:42:03.596Z,15.77
2017-10-27T06:44:31.072Z,11.57
2017-10-27T06:46:58.615Z,11.57
2017-10-27T06:49:26.149Z,10.93
2017-10-27T06:51:54.464Z,9.63
2017-10-27T06:54:21.946Z,9.57
2017-10-27T06:56:49.469Z,11.10
2017-10-27T06:59:16.989Z,11.03
2017-10-27T07:01:45.232Z,10.40
2017-10-27T07:04:12.723Z,9.10
2017-10-27T07:06:41.008Z,8.40
2017-10-27T07:09:08.560Z,7.20
2017-10-27T07:11:36.806Z,7.13
2017-10-27T07:14:04.763Z,9.27
2017-10-27T07:16:33.051Z,6.13
2017-10-27T07:19:01.355Z,8.17
2017-10-27T07:21:29.667Z,7.23
2017-10-27T07:23:57.192Z,7.10
2017-10-27T07:26:25.432Z,8.37
2017-10-27T07:28:52.919Z,6.53
2017-10-27T07:31:20.486Z,7.60
2017-10-27T07:33:48.733Z,6.03
2017-10-27T07:36:16.226Z,8.67
2017-10-27T07:38:44.589Z,7.23
2017-10-27T07:41:12.858Z,6.70
2017-10-27T07:43:40.347Z,7.77
2017-10-27T07:46:07.863Z,7.40
2017-10-27T07:48:35.471Z,6.27
2017-10-27T07:51:02.960Z,8.80
2017-10-27T07:53:30.444Z,6.63
2017-10-27T07:55:57.968Z,5.53
2017-10-27T07:58:25.519Z,5.77
2017-10-27T08:00:53.070Z,7.13
2017-10-27T08:03:20.552Z,6.10
2017-10-27T08:05:48.126Z,6.37
2017-10-27T08:08:15.616Z,6.43
2017-10-27T08:10:43.869Z,7.13
2017-10-27T08:13:11.348Z,5.83
2017-10-27T08:15:39.598Z,8.03
2017-10-27T08:18:07.099Z,8.43
2017-10-27T08:20:34.604Z,6.17
2017-10-27T08:23:02.140Z,5.87
2017-10-27T08:25:29.644Z,6.93
2017-10-27T08:27:57.140Z,6.67
2017-10-27T08:30:24.641Z,6.13
2017-10-27T08:32:52.175Z,6.43
2017-10-27T08:35:19.659Z,6.23
2017-10-27T08:37:47.140Z,5.83
2017-10-27T08:40:15.411Z,5.67
2017-10-27T08:42:42.908Z,4.97
2017-10-27T08:45:10.417Z,6.27
2017-10-27T08:47:37.916Z,5.23
2017-10-27T08:50:05.403Z,4.00
2017-10-27T08:52:32.894Z,3.93
2017-10-27T08:55:00.377Z,4.93
2017-10-27T08:57:28.633Z,5.73
2017-10-27T08:59:56.108Z,4.83
2017-10-27T09:02:24.365Z,4.43
2017-10-27T09:04:51.848Z,4.70
2017-10-27T09:07:19.363Z,3.03
2017-10-27T09:09:46.867Z,5.13
2017-10-27T09:12:14.457Z,6.00
2017-10-27T09:14:41.948Z,5.30
2017-10-27T09:17:09.429Z,3.63
2017-10-27T09:19:37.773Z,7.63
2017-10-27T09:22:05.305Z,4.30
2017-10-27T09:24:33.314Z,4.90
2017-10-27T09:27:00.801Z,3.37
2017-10-27T09:29:29.040Z,4.90
2017-10-27T09:31:56.524Z,5.80
2017-10-27T09:34:24.835Z,5.13
2017-10-27T09:36:52.319Z,3.43
2017-10-27T09:39:19.864Z,5.20
2017-10-27T09:41:47.413Z,5.10
2017-10-27T09:44:14.967Z,4.73
2017-10-27T09:46:42.457Z,3.63
2017-10-27T09:49:09.976Z,4.67
2017-10-27T09:51:37.477Z,3.90
2017-10-27T09:54:05.723Z,3.40
2017-10-27T09:56:33.211Z,5.07
2017-10-27T09:59:00.690Z,3.67
2017-10-27T10:01:28.186Z,4.03
2017-10-27T10:03:55.677Z,3.43
2017-10-27T10:06:23.171Z,3.93
2017-10-27T10:08:51.416Z,3.07
2017-10-27T10:11:18.904Z,2.50
2017-10-27T10:13:46.494Z,3.43
2017-10-27T10:16:13.991Z,4.20
2017-10-27T10:18:41.510Z,5.57
2017-10-27T10:21:09.003Z,5.07
2017-10-27T10:23:36.488Z,3.77
2017-10-27T10:26:04.837Z,7.47
2017-10-27T10:28:32.367Z,4.73
2017-10-27T10:30:59.943Z,4.83
2017-10-27T10:33:27.421Z,3.57
2017-10-27T10:35:54.937Z,5.00
2017-10-27T10:38:22.548Z,4.63
2017-10-27T10:40:50.145Z,4.83
2017-10-27T10:43:17.652Z,3.93
2017-10-27T10:45:45.155Z,3.73
2017-10-27T10:48:13.399Z,5.13
2017-10-27T10:50:41.387Z,3.67
2017-10-27T10:53:09.627Z,5.80
2017-10-27T10:55:37.130Z,3.93
2017-10-27T10:58:05.388Z,4.00
2017-10-27T11:00:32.907Z,3.33
2017-10-27T11:03:00.441Z,5.03
2017-10-27T11:05:27.936Z,4.37
2017-10-27T11:07:55.564Z,4.60
2017-10-27T11:10:23.061Z,3.97
2017-10-27T11:12:50.556Z,4.10
2017-10-27T11:15:18.805Z,4.77
2017-10-27T11:17:46.296Z,2.93
2017-10-27T11:20:13.801Z,5.43
2017-10-27T11:22:41.290Z,5.27
2017-10-27T11:25:09.549Z,4.60
2017-10-27T11:27:37.043Z,5.40
2017-10-27T11:30:05.297Z,8.00
2017-10-27T11:32:33.579Z,6.33
2017-10-27T11:35:01.856Z,2.50
2017-10-27T11:37:30.110Z,4.23
2017-10-27T11:39:57.587Z,5.83
2017-10-27T11:42:25.915Z,5.53
2017-10-27T11:44:53.413Z,4.63
2017-10-27T11:47:20.917Z,3.70
2017-10-27T11:49:48.507Z,3.47
2017-10-27T11:52:16.004Z,4.97
2017-10-27T11:54:44.255Z,3.97
2017-10-27T11:57:11.780Z,5.17
2017-10-27T11:59:39.279Z,5.53
2017-10-27T12:02:06.869Z,5.60
2017-10-27T12:04:34.357Z,4.23
2017-10-27T12:07:01.857Z,4.67
2017-10-27T12:09:29.391Z,5.10
2017-10-27T12:11:56.876Z,3.87
2017-10-27T12:14:24.369Z,4.97
2017-10-27T12:16:51.933Z,3.30
2017-10-27T12:19:19.417Z,2.97
2017-10-27T12:21:46.937Z,3.37
2017-10-27T12:24:14.427Z,1.97
2017-10-27T12:26:41.912Z,2.53
2017-10-27T12:29:09.424Z,1.50
2017-10-27T12:31:36.916Z,1.60
2017-10-27T12:34:04.393Z,3.47
2017-10-27T12:36:31.904Z,2.10
2017-10-27T12:38:59.435Z,1.60
2017-10-27T12:41:27.720Z,1.53
2017-10-27T12:43:55.208Z,2.53
2017-10-27T12:46:22.704Z,4.13
2017-10-27T12:48:50.227Z,1.87
2017-10-27T12:51:17.747Z,2.27
2017-10-27T12:53:45.279Z,1.43
2017-10-27T12:56:12.778Z,2.23
2017-10-27T12:58:40.275Z,2.30
2017-10-27T13:01:07.764Z,1.97
2017-10-27T13:03:36.026Z,4.40
2017-10-27T13:06:04.296Z,2.87
2017-10-27T13:08:31.811Z,3.63
2017-10-27T13:10:59.324Z,3.23
2017-10-27T13:13:26.810Z,4.33
2017-10-27T13:15:54.352Z,4.43
2017-10-27T13:18:22.596Z,2.90
2017-10-27T13:20:50.095Z,4.30
2017-10-27T13:23:18.341Z,3.37
2017-10-27T13:25:45.823Z,7.57
2017-10-27T13:28:14.074Z,4.33
2017-10-27T13:30:41.567Z,3.03
2017-10-27T13:33:09.049Z,3.13
2017-10-27T13:35:36.540Z,3.90
2017-10-27T13:38:04.020Z,4.80
2017-10-27T13:40:32.275Z,4.67
2017-10-27T13:42:59.755Z,4.50
2017-10-27T13:45:28.036Z,3.53
2017-10-27T13:47:56.278Z,3.40
2017-10-27T13:50:23.916Z,4.90
2017-10-27T13:52:51.392Z,8.27
2017-10-27T13:55:18.888Z,3.30
2017-10-27T13:57:47.129Z,3.73
2017-10-27T14:00:14.660Z,3.40
2017-10-27T14:02:42.171Z,3.40
2017-10-27T14:05:10.431Z,3.50
2017-10-27T14:07:37.930Z,3.90
2017-10-27T14:10:05.412Z,3.47
2017-10-27T14:12:32.907Z,3.70
2017-10-27T14:15:00.415Z,4.63
2017-10-27T14:17:27.914Z,2.27
2017-10-27T14:19:55.400Z,3.40
2017-10-27T14:22:23.673Z,3.13
2017-10-27T14:24:51.928Z,4.03
2017-10-27T14:27:19.419Z,4.60
2017-10-27T14:29:47.715Z,4.23
2017-10-27T14:32:15.347Z,1.93
2017-10-27T14:34:42.837Z,1.87
2017-10-27T14:37:10.328Z,2.30
2017-10-27T14:39:37.808Z,3.03
2017-10-27T14:42:06.060Z,2.50
2017-10-27T14:44:44.587Z,3.30
2017-10-27T14:47:12.169Z,2.50
2017-10-27T14:49:40.433Z,2.10
2017-10-27T14:52:08.700Z,2.47
2017-10-27T14:54:36.195Z,3.30
2017-10-27T14:57:03.673Z,2.00
2017-10-27T14:59:31.150Z,3.00
2017-10-27T15:01:58.663Z,2.13
2017-10-27T15:04:26.193Z,2.73
2017-10-27T15:06:53.685Z,2.23
2017-10-27T15:09:21.180Z,2.50
2017-10-27T15:11:48.660Z,3.30
2017-10-27T15:14:16.154Z,4.37
2017-10-27T15:16:43.656Z,3.03
2017-10-27T15:19:11.124Z,2.97
2017-10-27T15:21:38.707Z,3.53
2017-10-27T15:24:06.216Z,2.53
2017-10-27T15:26:33.712Z,2.40
2017-10-27T15:29:01.205Z,3.13
2017-10-27T15:31:28.700Z,3.43
2017-10-27T15:33:56.177Z,2.27
2017-10-27T15:36:23.767Z,2.77
2017-10-27T15:38:52.049Z,2.13
2017-10-27T15:41:20.321Z,2.83
2017-10-27T15:43:48.602Z,3.73
2017-10-27T15:46:16.136Z,2.27
2017-10-27T15:48:43.629Z,3.77
2017-10-27T15:51:11.145Z,3.90
2017-10-27T15:53:38.642Z,2.70
2017-10-27T15:56:06.129Z,2.93
2017-10-27T15:58:33.613Z,2.30
2017-10-27T16:01:01.100Z,2.93
2017-10-27T16:03:29.348Z,2.63
2017-10-27T16:05:56.836Z,3.00
2017-10-27T16:08:25.084Z,2.57
2017-10-27T16:10:52.582Z,2.37
2017-10-27T16:13:20.062Z,2.47
2017-10-27T16:15:47.607Z,2.97
2017-10-27T16:18:15.093Z,1.90
2017-10-27T16:20:42.583Z,3.23
2017-10-27T16:23:10.131Z,2.63
2017-10-27T16:25:37.667Z,4.07
2017-10-27T16:28:05.195Z,3.47
2017-10-27T16:30:32.718Z,2.80
2017-10-27T16:33:00.219Z,1.97
2017-10-27T16:35:27.703Z,2.73
2017-10-27T16:37:55.188Z,2.33
2017-10-27T16:40:22.683Z,2.53
2017-10-27T16:42:50.151Z,3.40
2017-10-27T16:45:17.697Z,3.03
2017-10-27T16:47:45.189Z,1.87
2017-10-27T16:50:12.704Z,2.73
2017-10-27T16:52:40.403Z,2.97
2017-10-27T16:55:07.945Z,2.07
2017-10-27T16:57:35.422Z,2.50
2017-10-27T17:00:02.912Z,2.17
2017-10-27T17:02:30.519Z,3.53
2017-10-27T17:04:58.027Z,2.97
2017-10-27T17:07:25.803Z,3.47
2017-10-27T17:09:53.337Z,2.73
2017-10-27T17:12:20.831Z,2.50
2017-10-27T17:14:49.145Z,2.87
2017-10-27T17:17:16.647Z,3.33
2017-10-27T17:19:44.140Z,3.77
2017-10-27T17:22:11.704Z,2.20
2017-10-27T17:24:39.180Z,3.30
2017-10-27T17:27:06.680Z,3.00
2017-10-27T17:29:34.156Z,4.73
2017-10-27T17:32:02.419Z,3.37
2017-10-27T17:34:30.111Z,3.20
2017-10-27T17:36:57.600Z,2.97
2017-10-27T17:39:25.071Z,3.13
2017-10-27T17:41:52.569Z,3.67
2017-10-27T17:44:21.764Z,3.27
2017-10-27T17:46:50.028Z,3.93
2017-10-27T17:49:17.508Z,3.63
2017-10-27T17:51:45.020Z,3.90
2017-10-27T17:54:12.491Z,2.37
2017-10-27T17:56:40.072Z,3.43
2017-10-27T17:59:08.333Z,2.87
2017-10-27T18:01:43.331Z,4.07
2017-10-27T18:04:10.864Z,4.03
2017-10-27T18:06:38.392Z,3.50
2017-10-27T18:09:06.655Z,2.20
2017-10-27T18:11:34.226Z,3.73
2017-10-27T18:14:02.487Z,2.67
2017-10-27T18:16:30.763Z,3.00
2017-10-27T18:18:58.290Z,2.60
2017-10-27T18:21:25.879Z,2.40
2017-10-27T18:23:53.480Z,3.90
2017-10-27T18:26:20.972Z,3.20
2017-10-27T18:28:48.528Z,3.83
2017-10-27T18:31:17.005Z,4.23
2017-10-27T18:33:44.483Z,3.77
2017-10-27T18:36:11.972Z,2.73
2017-10-27T18:38:40.223Z,4.43
2017-10-27T18:41:07.723Z,3.87
2017-10-27T18:43:35.264Z,2.83
2017-10-27T18:46:03.522Z,3.77
2017-10-27T18:48:30.999Z,4.10
2017-10-27T18:50:59.247Z,2.70
2017-10-27T18:53:26.724Z,3.80
2017-10-27T18:55:54.227Z,2.43
2017-10-27T18:58:21.733Z,2.83
2017-10-27T19:00:49.236Z,4.13
2017-10-27T19:03:16.747Z,2.53
2017-10-27T19:05:44.255Z,4.40
2017-10-27T19:08:11.739Z,3.37
2017-10-27T19:10:40.042Z,3.33
2017-10-27T19:13:07.549Z,4.83
2017-10-27T19:15:35.027Z,2.47
2017-10-27T19:18:02.517Z,2.47
2017-10-27T19:20:30.784Z,4.60
2017-10-27T19:22:58.275Z,2.67
2017-10-27T19:25:26.523Z,2.90
2017-10-27T19:27:53.999Z,3.47
2017-10-27T19:30:22.333Z,3.17
2017-10-27T19:32:49.815Z,2.20
2017-10-27T19:35:17.313Z,3.63
2017-10-27T19:37:44.806Z,2.63
2017-10-27T19:40:12.292Z,3.03
2017-10-27T19:42:39.790Z,2.30
2017-10-27T19:45:07.352Z,2.10
2017-10-27T19:47:34.835Z,2.83
2017-10-27T19:50:02.502Z,3.33
2017-10-27T19:52:30.044Z,2.63
2017-10-27T19:54:57.528Z,3.00
2017-10-27T19:57:25.008Z,3.60
2017-10-27T19:59:53.249Z,6.30
2017-10-27T20:02:20.752Z,5.13
2017-10-27T20:04:48.988Z,6.73
2017-10-27T20:07:16.524Z,3.53
2017-10-27T20:09:44.007Z,3.40
2017-10-27T20:12:11.503Z,2.53
2017-10-27T20:14:38.992Z,4.33
2017-10-27T20:17:06.503Z,2.80
2017-10-27T20:19:34.747Z,2.90
2017-10-27T20:22:02.304Z,2.93
2017-10-27T20:24:29.836Z,4.13
2017-10-27T20:26:57.351Z,3.47
2017-10-27T20:29:25.622Z,3.60
2017-10-27T20:31:53.170Z,3.13
2017-10-27T20:34:20.692Z,3.20
2017-10-27T20:36:48.199Z,4.93
2017-10-27T20:39:15.737Z,4.60
2017-10-27T20:41:43.228Z,4.13
2017-10-27T20:44:11.529Z,3.20
2017-10-27T20:46:39.016Z,3.60
2017-10-27T20:49:06.485Z,5.70
2017-10-27T20:51:33.965Z,4.90
2017-10-27T20:54:01.450Z,4.23
2017-10-27T20:56:28.985Z,4.23
2017-10-27T20:58:56.475Z,3.97
2017-10-27T21:01:23.969Z,5.47
2017-10-27T21:03:51.455Z,4.50
2017-10-27T21:06:18.951Z,4.30
2017-10-27T21:08:46.428Z,7.20
2017-10-27T21:11:14.716Z,3.80
2017-10-27T21:13:42.209Z,3.27
2017-10-27T21:16:09.679Z,4.33
2017-10-27T21:18:37.926Z,2.80
2017-10-27T21:21:06.188Z,4.17
2017-10-27T21:23:33.679Z,3.97
2017-10-27T21:26:01.955Z,2.90
2017-10-27T21:28:30.239Z,2.87
2017-10-27T21:30:58.480Z,3.47
2017-10-27T21:33:26.004Z,2.47
2017-10-27T21:35:53.484Z,7.10
2017-10-27T21:38:20.963Z,5.57
2017-10-27T21:40:48.449Z,2.60
2017-10-27T21:43:16.697Z,3.73
2017-10-27T21:45:44.175Z,2.50
2017-10-27T21:48:12.411Z,2.57
2017-10-27T21:50:39.908Z,4.00
2017-10-27T21:53:08.149Z,3.00
2017-10-27T21:55:35.653Z,4.23
2017-10-27T21:58:03.127Z,5.00
2017-10-27T22:00:30.694Z,6.53
2017-10-27T22:02:58.192Z,4.93
2017-10-27T22:05:26.490Z,3.33
2017-10-27T22:07:53.992Z,4.40
2017-10-27T22:10:21.601Z,2.77
2017-10-27T22:12:49.848Z,3.23
2017-10-27T22:15:17.351Z,2.77
2017-10-27T22:17:45.595Z,2.93
2017-10-27T22:20:13.074Z,2.80
2017-10-27T22:22:41.339Z,5.07
2017-10-27T22:25:08.880Z,4.23
2017-10-27T22:27:36.371Z,3.33
2017-10-27T22:30:04.720Z,3.60
2017-10-27T22:32:32.196Z,4.17
2017-10-27T22:35:00.455Z,3.33
2017-10-27T22:37:27.948Z,5.03
2017-10-27T22:39:55.429Z,3.10
2017-10-27T22:42:22.930Z,3.97
2017-10-27T22:44:50.464Z,3.93
2017-10-27T22:47:17.956Z,4.70
2017-10-27T22:49:46.253Z,2.77
2017-10-27T22:52:13.780Z,4.40
2017-10-27T22:54:41.267Z,3.13
2017-10-27T22:57:09.928Z,3.27
2017-10-27T22:59:37.407Z,3.90
2017-10-27T23:02:05.654Z,5.47
2017-10-27T23:04:33.126Z,4.40
2017-10-27T23:07:00.604Z,4.17
2017-10-27T23:09:28.083Z,3.20
2017-10-27T23:11:55.588Z,4.50
2017-10-27T23:14:23.097Z,5.37
2017-10-27T23:16:50.596Z,3.73
2017-10-27T23:19:18.090Z,5.43
2017-10-27T23:21:45.576Z,3.47
2017-10-27T23:24:13.072Z,5.03
2017-10-27T23:26:40.566Z,4.13
2017-10-27T23:29:08.808Z,2.80
2017-10-27T23:31:36.308Z,4.00
2017-10-27T23:34:03.801Z,4.03
2017-10-27T23:36:31.354Z,3.90
2017-10-27T23:38:58.838Z,5.73
2017-10-27T23:41:26.363Z,5.37
2017-10-27T23:43:54.735Z,3.40
2017-10-27T23:46:22.244Z,4.87
2017-10-27T23:48:49.723Z,4.50
2017-10-27T23:51:18.091Z,5.40
2017-10-27T23:53:46.342Z,4.10
2017-10-27T23:56:13.829Z,5.70
2017-10-27T23:58:41.319Z,4.07
